Ashland, Missouri
Current Conditions -  °F | °C
As of 6:54 AM on Friday 19 Dec 2014 (Local Time) from KCOU Reporting Station
Haze Haze  
Wind Chill: 27°   Ceiling: 5000
Heat Index: 32°   Visibility: 6mi
Dew Point: 30°   Wind: 5mph
Humidity: 92%   Direction: 90°E
Pressure: 30.26"   Gusts: NA
Location:  38.77°N, 92.26°W
Report Text: KCOU 191254Z 09004KT 6SM BR OVC050 00/M01 A3026 RMK AO2 SLP256 T00001011
Loading
Personal Weather Stations






























Interactive Weather Map New forecast layout! Learn more

10-Day Weather Forecast

Advertisements
Track Severe Weather on mobile